sensor_id;sensor_type;location;lat;lon;timestamp;pressure;altitude;pressure_sealevel;temperature;humidity
35910;BME280;22004;49.120;-0.200;2023-05-07T00:01:41;101300.38;;;14.35;91.38
35910;BME280;22004;49.120;-0.200;2023-05-07T00:04:06;101290.84;;;14.39;90.58
35910;BME280;22004;49.120;-0.200;2023-05-07T00:06:32;101295.66;;;14.58;87.64
35910;BME280;22004;49.120;-0.200;2023-05-07T00:08:58;101289.59;;;14.56;88.73
35910;BME280;22004;49.120;-0.200;2023-05-07T00:11:24;101288.44;;;14.65;86.60
35910;BME280;22004;49.120;-0.200;2023-05-07T00:13:49;101289.34;;;14.72;86.46
35910;BME280;22004;49.120;-0.200;2023-05-07T00:16:15;101295.06;;;14.63;89.09
35910;BME280;22004;49.120;-0.200;2023-05-07T00:18:40;101289.63;;;14.84;85.48
35910;BME280;22004;49.120;-0.200;2023-05-07T00:21:05;101289.97;;;14.74;88.00
35910;BME280;22004;49.120;-0.200;2023-05-07T00:23:31;101279.75;;;14.70;87.03
35910;BME280;22004;49.120;-0.200;2023-05-07T00:25:56;101279.69;;;14.91;83.87
35910;BME280;22004;49.120;-0.200;2023-05-07T00:28:21;101266.97;;;14.85;85.26
35910;BME280;22004;49.120;-0.200;2023-05-07T00:30:47;101266.97;;;14.57;88.82
35910;BME280;22004;49.120;-0.200;2023-05-07T00:33:12;101269.84;;;14.56;88.17
35910;BME280;22004;49.120;-0.200;2023-05-07T00:35:38;101266.88;;;14.51;89.15
35910;BME280;22004;49.120;-0.200;2023-05-07T00:38:03;101271.44;;;14.50;88.02
35910;BME280;22004;49.120;-0.200;2023-05-07T00:40:28;101271.75;;;14.83;84.44
35910;BME280;22004;49.120;-0.200;2023-05-07T00:42:54;101269.19;;;14.75;84.76
35910;BME280;22004;49.120;-0.200;2023-05-07T00:45:28;101260.44;;;14.73;86.37
35910;BME280;22004;49.120;-0.200;2023-05-07T00:47:55;101262.41;;;14.58;87.91
35910;BME280;22004;49.120;-0.200;2023-05-07T00:50:21;101259.03;;;14.77;84.44
35910;BME280;22004;49.120;-0.200;2023-05-07T00:52:47;101268.06;;;14.91;82.93
35910;BME280;22004;49.120;-0.200;2023-05-07T00:55:12;101253.78;;;14.97;83.06
35910;BME280;22004;49.120;-0.200;2023-05-07T00:57:40;101255.19;;;14.93;82.05
35910;BME280;22004;49.120;-0.200;2023-05-07T01:00:07;101255.53;;;14.83;84.61
35910;BME280;22004;49.120;-0.200;2023-05-07T01:02:34;101262.06;;;14.67;84.73
35910;BME280;22004;49.120;-0.200;2023-05-07T01:05:00;101259.69;;;14.86;83.71
35910;BME280;22004;49.120;-0.200;2023-05-07T01:07:26;101260.09;;;14.83;84.42
35910;BME280;22004;49.120;-0.200;2023-05-07T01:09:52;101261.47;;;15.00;81.77
35910;BME280;22004;49.120;-0.200;2023-05-07T01:12:19;101258.53;;;14.95;82.26
35910;BME280;22004;49.120;-0.200;2023-05-07T01:14:44;101255.88;;;14.73;84.62
35910;BME280;22004;49.120;-0.200;2023-05-07T01:17:10;101265.84;;;15.01;81.35
35910;BME280;22004;49.120;-0.200;2023-05-07T01:19:35;101269.81;;;15.05;81.25
35910;BME280;22004;49.120;-0.200;2023-05-07T01:22:04;101261.09;;;15.03;81.26
35910;BME280;22004;49.120;-0.200;2023-05-07T01:24:32;101261.91;;;15.04;81.76
35910;BME280;22004;49.120;-0.200;2023-05-07T01:26:58;101266.88;;;15.00;81.31
35910;BME280;22004;49.120;-0.200;2023-05-07T01:29:23;101256.31;;;15.05;80.78
35910;BME280;22004;49.120;-0.200;2023-05-07T01:31:50;101257.09;;;14.99;81.83
35910;BME280;22004;49.120;-0.200;2023-05-07T01:34:17;101257.56;;;15.03;80.95
35910;BME280;22004;49.120;-0.200;2023-05-07T01:36:44;101248.84;;;14.79;83.52
35910;BME280;22004;49.120;-0.200;2023-05-07T01:39:10;101263.56;;;14.98;81.41
35910;BME280;22004;49.120;-0.200;2023-05-07T01:41:35;101260.53;;;14.86;83.14
35910;BME280;22004;49.120;-0.200;2023-05-07T01:44:01;101259.13;;;14.90;81.92
35910;BME280;22004;49.120;-0.200;2023-05-07T01:46:28;101264.59;;;14.97;82.00
35910;BME280;22004;49.120;-0.200;2023-05-07T01:48:55;101265.56;;;14.89;82.50
35910;BME280;22004;49.120;-0.200;2023-05-07T01:51:21;101261.56;;;14.85;82.47
35910;BME280;22004;49.120;-0.200;2023-05-07T01:53:47;101261.19;;;14.88;82.70
35910;BME280;22004;49.120;-0.200;2023-05-07T01:56:16;101261.47;;;15.00;81.12
35910;BME280;22004;49.120;-0.200;2023-05-07T01:58:42;101259.28;;;14.82;83.09
35910;BME280;22004;49.120;-0.200;2023-05-07T02:01:07;101272.13;;;14.80;83.59
35910;BME280;22004;49.120;-0.200;2023-05-07T02:03:32;101269.28;;;14.88;81.84
35910;BME280;22004;49.120;-0.200;2023-05-07T02:05:58;101275.91;;;14.86;82.73
35910;BME280;22004;49.120;-0.200;2023-05-07T02:08:23;101279.53;;;14.93;81.36
35910;BME280;22004;49.120;-0.200;2023-05-07T02:10:48;101275.78;;;14.94;81.42
35910;BME280;22004;49.120;-0.200;2023-05-07T02:13:15;101274.94;;;14.93;81.37
35910;BME280;22004;49.120;-0.200;2023-05-07T02:15:40;101272.00;;;14.88;81.85
35910;BME280;22004;49.120;-0.200;2023-05-07T02:18:07;101277.50;;;14.73;83.25
35910;BME280;22004;49.120;-0.200;2023-05-07T02:20:32;101276.63;;;14.94;81.13
35910;BME280;22004;49.120;-0.200;2023-05-07T02:22:58;101282.66;;;14.96;80.92
35910;BME280;22004;49.120;-0.200;2023-05-07T02:25:23;101278.09;;;14.97;81.13
35910;BME280;22004;49.120;-0.200;2023-05-07T02:27:49;101281.81;;;14.96;80.80
35910;BME280;22004;49.120;-0.200;2023-05-07T02:30:14;101289.75;;;14.97;81.02
35910;BME280;22004;49.120;-0.200;2023-05-07T02:32:40;101285.09;;;14.91;81.65
35910;BME280;22004;49.120;-0.200;2023-05-07T02:35:05;101290.97;;;14.95;81.07
35910;BME280;22004;49.120;-0.200;2023-05-07T02:37:31;101302.63;;;14.95;81.10
35910;BME280;22004;49.120;-0.200;2023-05-07T02:39:56;101300.31;;;14.92;81.08
35910;BME280;22004;49.120;-0.200;2023-05-07T02:42:21;101295.09;;;14.91;81.13
35910;BME280;22004;49.120;-0.200;2023-05-07T02:44:47;101290.94;;;14.88;81.63
35910;BME280;22004;49.120;-0.200;2023-05-07T02:47:13;101297.63;;;14.92;81.12
35910;BME280;22004;49.120;-0.200;2023-05-07T02:49:38;101300.44;;;14.84;81.92
35910;BME280;22004;49.120;-0.200;2023-05-07T02:52:04;101301.06;;;14.86;81.74
35910;BME280;22004;49.120;-0.200;2023-05-07T02:54:29;101297.53;;;14.86;81.34
35910;BME280;22004;49.120;-0.200;2023-05-07T02:56:55;101309.44;;;14.91;81.30
35910;BME280;22004;49.120;-0.200;2023-05-07T02:59:21;101303.66;;;14.94;80.84
35910;BME280;22004;49.120;-0.200;2023-05-07T03:01:46;101309.06;;;14.94;80.88
35910;BME280;22004;49.120;-0.200;2023-05-07T03:04:13;101313.19;;;14.90;81.32
35910;BME280;22004;49.120;-0.200;2023-05-07T03:06:38;101304.25;;;14.90;81.07
35910;BME280;22004;49.120;-0.200;2023-05-07T03:09:04;101305.06;;;14.90;81.22
35910;BME280;22004;49.120;-0.200;2023-05-07T03:11:29;101307.59;;;14.92;81.07
35910;BME280;22004;49.120;-0.200;2023-05-07T03:13:55;101305.72;;;14.92;81.03
35910;BME280;22004;49.120;-0.200;2023-05-07T03:16:20;101301.66;;;14.82;82.83
35910;BME280;22004;49.120;-0.200;2023-05-07T03:18:45;101309.25;;;14.93;80.84
35910;BME280;22004;49.120;-0.200;2023-05-07T03:21:11;101295.53;;;14.94;80.94
35910;BME280;22004;49.120;-0.200;2023-05-07T03:23:36;101310.69;;;14.89;80.97
35910;BME280;22004;49.120;-0.200;2023-05-07T03:26:02;101306.09;;;14.89;80.91
35910;BME280;22004;49.120;-0.200;2023-05-07T03:28:27;101306.47;;;14.86;81.19
35910;BME280;22004;49.120;-0.200;2023-05-07T03:30:52;101303.16;;;14.84;81.53
35910;BME280;22004;49.120;-0.200;2023-05-07T03:33:18;101303.41;;;14.89;80.98
35910;BME280;22004;49.120;-0.200;2023-05-07T03:35:43;101306.94;;;14.90;80.96
35910;BME280;22004;49.120;-0.200;2023-05-07T03:38:08;101304.81;;;14.85;81.48
35910;BME280;22004;49.120;-0.200;2023-05-07T03:40:34;101310.44;;;14.84;81.67
35910;BME280;22004;49.120;-0.200;2023-05-07T03:43:00;101306.47;;;14.86;81.14
35910;BME280;22004;49.120;-0.200;2023-05-07T03:45:25;101307.78;;;14.90;80.59
35910;BME280;22004;49.120;-0.200;2023-05-07T03:47:51;101309.13;;;14.80;82.11
35910;BME280;22004;49.120;-0.200;2023-05-07T03:50:16;101303.84;;;14.71;81.93
35910;BME280;22004;49.120;-0.200;2023-05-07T03:52:42;101305.81;;;14.78;82.93
35910;BME280;22004;49.120;-0.200;2023-05-07T03:55:07;101308.94;;;14.81;81.53
35910;BME280;22004;49.120;-0.200;2023-05-07T03:57:33;101318.91;;;14.81;81.33
35910;BME280;22004;49.120;-0.200;2023-05-07T03:59:58;101316.03;;;14.82;81.19
35910;BME280;22004;49.120;-0.200;2023-05-07T04:02:23;101321.63;;;14.81;82.12
35910;BME280;22004;49.120;-0.200;2023-05-07T04:04:49;101320.59;;;14.82;81.57
35910;BME280;22004;49.120;-0.200;2023-05-07T04:07:15;101324.53;;;14.79;81.66
35910;BME280;22004;49.120;-0.200;2023-05-07T04:09:40;101334.72;;;14.77;82.80
35910;BME280;22004;49.120;-0.200;2023-05-07T04:12:06;101331.13;;;14.77;82.19
35910;BME280;22004;49.120;-0.200;2023-05-07T04:14:31;101337.31;;;14.70;84.55
35910;BME280;22004;49.120;-0.200;2023-05-07T04:16:58;101335.28;;;14.72;82.86
35910;BME280;22004;49.120;-0.200;2023-05-07T04:19:24;101343.25;;;14.81;82.29
35910;BME280;22004;49.120;-0.200;2023-05-07T04:21:50;101346.66;;;14.68;84.63
35910;BME280;22004;49.120;-0.200;2023-05-07T04:24:15;101341.78;;;14.78;82.47
35910;BME280;22004;49.120;-0.200;2023-05-07T04:26:40;101357.13;;;14.56;86.38
35910;BME280;22004;49.120;-0.200;2023-05-07T04:29:06;101350.00;;;14.70;84.33
35910;BME280;22004;49.120;-0.200;2023-05-07T04:31:32;101355.88;;;14.73;83.25
35910;BME280;22004;49.120;-0.200;2023-05-07T04:33:57;101354.72;;;14.83;81.97
35910;BME280;22004;49.120;-0.200;2023-05-07T04:36:22;101359.53;;;14.66;84.54
35910;BME280;22004;49.120;-0.200;2023-05-07T04:38:48;101365.75;;;14.66;83.81
35910;BME280;22004;49.120;-0.200;2023-05-07T04:41:13;101366.22;;;14.48;86.40
35910;BME280;22004;49.120;-0.200;2023-05-07T04:43:38;101370.28;;;14.44;86.07
35910;BME280;22004;49.120;-0.200;2023-05-07T04:46:04;101370.66;;;14.56;85.34
35910;BME280;22004;49.120;-0.200;2023-05-07T04:48:30;101363.53;;;14.70;83.20
35910;BME280;22004;49.120;-0.200;2023-05-07T04:50:55;101363.38;;;14.57;84.31
35910;BME280;22004;49.120;-0.200;2023-05-07T04:53:20;101366.41;;;14.68;83.72
35910;BME280;22004;49.120;-0.200;2023-05-07T04:55:47;101368.28;;;14.68;83.97
35910;BME280;22004;49.120;-0.200;2023-05-07T04:58:12;101369.38;;;14.52;84.82
35910;BME280;22004;49.120;-0.200;2023-05-07T05:00:38;101362.38;;;14.58;85.02
35910;BME280;22004;49.120;-0.200;2023-05-07T05:03:05;101370.28;;;14.59;85.44
35910;BME280;22004;49.120;-0.200;2023-05-07T05:05:31;101370.34;;;14.66;84.71
35910;BME280;22004;49.120;-0.200;2023-05-07T05:07:56;101368.88;;;14.63;84.47
35910;BME280;22004;49.120;-0.200;2023-05-07T05:10:22;101380.88;;;14.61;85.12
35910;BME280;22004;49.120;-0.200;2023-05-07T05:12:47;101376.72;;;14.43;86.06
35910;BME280;22004;49.120;-0.200;2023-05-07T05:15:12;101388.09;;;14.54;84.88
35910;BME280;22004;49.120;-0.200;2023-05-07T05:17:38;101382.13;;;14.58;85.42
35910;BME280;22004;49.120;-0.200;2023-05-07T05:20:04;101390.19;;;14.73;83.68
35910;BME280;22004;49.120;-0.200;2023-05-07T05:22:31;101388.94;;;14.54;85.30
35910;BME280;22004;49.120;-0.200;2023-05-07T05:24:56;101385.53;;;14.67;84.04
35910;BME280;22004;49.120;-0.200;2023-05-07T05:27:22;101390.94;;;14.67;84.60
35910;BME280;22004;49.120;-0.200;2023-05-07T05:29:47;101393.81;;;14.65;84.14
35910;BME280;22004;49.120;-0.200;2023-05-07T05:32:12;101396.47;;;14.59;86.29
35910;BME280;22004;49.120;-0.200;2023-05-07T05:34:38;101403.63;;;14.52;86.15
35910;BME280;22004;49.120;-0.200;2023-05-07T05:37:03;101406.38;;;14.73;84.14
35910;BME280;22004;49.120;-0.200;2023-05-07T05:39:29;101405.03;;;14.84;82.71
35910;BME280;22004;49.120;-0.200;2023-05-07T05:41:54;101405.03;;;14.62;84.76
35910;BME280;22004;49.120;-0.200;2023-05-07T05:44:19;101411.53;;;14.68;85.44
35910;BME280;22004;49.120;-0.200;2023-05-07T05:46:45;101415.84;;;14.62;85.40
35910;BME280;22004;49.120;-0.200;2023-05-07T05:49:10;101422.66;;;14.58;86.41
35910;BME280;22004;49.120;-0.200;2023-05-07T05:51:36;101424.91;;;14.76;84.33
35910;BME280;22004;49.120;-0.200;2023-05-07T05:54:01;101424.41;;;14.51;85.96
35910;BME280;22004;49.120;-0.200;2023-05-07T05:56:26;101427.84;;;14.60;85.14
35910;BME280;22004;49.120;-0.200;2023-05-07T05:58:52;101435.13;;;14.59;84.93
35910;BME280;22004;49.120;-0.200;2023-05-07T06:01:18;101443.69;;;14.63;84.74
35910;BME280;22004;49.120;-0.200;2023-05-07T06:03:43;101438.28;;;14.63;84.38
35910;BME280;22004;49.120;-0.200;2023-05-07T06:06:09;101443.81;;;14.55;85.19
35910;BME280;22004;49.120;-0.200;2023-05-07T06:08:34;101447.34;;;14.55;85.32
35910;BME280;22004;49.120;-0.200;2023-05-07T06:11:01;101450.88;;;14.56;85.71
35910;BME280;22004;49.120;-0.200;2023-05-07T06:13:26;101448.13;;;14.70;84.74
35910;BME280;22004;49.120;-0.200;2023-05-07T06:15:51;101446.63;;;14.83;83.48
35910;BME280;22004;49.120;-0.200;2023-05-07T06:18:17;101454.22;;;14.72;85.62
35910;BME280;22004;49.120;-0.200;2023-05-07T06:20:42;101453.81;;;14.76;84.83
35910;BME280;22004;49.120;-0.200;2023-05-07T06:23:07;101449.13;;;14.84;83.95
35910;BME280;22004;49.120;-0.200;2023-05-07T06:25:33;101459.16;;;14.90;84.18
35910;BME280;22004;49.120;-0.200;2023-05-07T06:27:58;101459.06;;;15.20;83.32
35910;BME280;22004;49.120;-0.200;2023-05-07T06:30:24;101457.34;;;15.12;84.03
35910;BME280;22004;49.120;-0.200;2023-05-07T06:32:49;101467.63;;;15.23;84.20
35910;BME280;22004;49.120;-0.200;2023-05-07T06:35:14;101458.19;;;15.41;84.09
35910;BME280;22004;49.120;-0.200;2023-05-07T06:37:41;101459.34;;;16.02;81.09
35910;BME280;22004;49.120;-0.200;2023-05-07T06:40:08;101459.19;;;15.61;81.26
35910;BME280;22004;49.120;-0.200;2023-05-07T06:42:35;101460.16;;;15.25;82.32
35910;BME280;22004;49.120;-0.200;2023-05-07T06:45:01;101465.66;;;14.96;83.20
35910;BME280;22004;49.120;-0.200;2023-05-07T06:47:26;101465.88;;;14.94;84.00
35910;BME280;22004;49.120;-0.200;2023-05-07T06:49:51;101466.41;;;15.05;83.61
35910;BME280;22004;49.120;-0.200;2023-05-07T06:52:17;101474.19;;;15.14;82.66
35910;BME280;22004;49.120;-0.200;2023-05-07T06:54:42;101477.88;;;15.07;83.90
35910;BME280;22004;49.120;-0.200;2023-05-07T06:57:07;101478.06;;;15.27;83.09
35910;BME280;22004;49.120;-0.200;2023-05-07T06:59:33;101481.22;;;15.30;82.99
35910;BME280;22004;49.120;-0.200;2023-05-07T07:01:58;101484.94;;;15.29;82.37
35910;BME280;22004;49.120;-0.200;2023-05-07T07:04:24;101485.78;;;15.30;82.42
35910;BME280;22004;49.120;-0.200;2023-05-07T07:06:52;101490.59;;;15.56;83.72
35910;BME280;22004;49.120;-0.200;2023-05-07T07:09:17;101488.81;;;15.91;81.18
35910;BME280;22004;49.120;-0.200;2023-05-07T07:11:42;101483.06;;;15.72;83.26
35910;BME280;22004;49.120;-0.200;2023-05-07T07:14:08;101491.78;;;15.46;82.31
35910;BME280;22004;49.120;-0.200;2023-05-07T07:16:33;101491.00;;;15.52;82.56
35910;BME280;22004;49.120;-0.200;2023-05-07T07:18:58;101493.53;;;15.61;84.96
35910;BME280;22004;49.120;-0.200;2023-05-07T07:21:24;101487.41;;;15.67;82.68
35910;BME280;22004;49.120;-0.200;2023-05-07T07:23:49;101499.91;;;15.46;83.73
35910;BME280;22004;49.120;-0.200;2023-05-07T07:26:15;101500.22;;;15.37;82.28
35910;BME280;22004;49.120;-0.200;2023-05-07T07:28:44;101500.97;;;15.31;83.06
35910;BME280;22004;49.120;-0.200;2023-05-07T07:31:10;101509.44;;;15.42;83.16
35910;BME280;22004;49.120;-0.200;2023-05-07T07:33:36;101512.78;;;15.44;81.64
35910;BME280;22004;49.120;-0.200;2023-05-07T07:36:01;101507.47;;;15.36;82.37
35910;BME280;22004;49.120;-0.200;2023-05-07T07:38:27;101516.88;;;15.40;82.78
35910;BME280;22004;49.120;-0.200;2023-05-07T07:40:53;101514.13;;;15.55;82.28
35910;BME280;22004;49.120;-0.200;2023-05-07T07:43:18;101518.19;;;15.44;83.20
35910;BME280;22004;49.120;-0.200;2023-05-07T07:45:44;101514.97;;;15.34;83.23
35910;BME280;22004;49.120;-0.200;2023-05-07T07:48:09;101510.94;;;15.66;81.15
35910;BME280;22004;49.120;-0.200;2023-05-07T07:50:35;101514.28;;;15.96;82.64
35910;BME280;22004;49.120;-0.200;2023-05-07T07:53:00;101514.78;;;16.07;83.36
35910;BME280;22004;49.120;-0.200;2023-05-07T07:55:26;101511.94;;;15.87;82.20
35910;BME280;22004;49.120;-0.200;2023-05-07T07:57:52;101523.69;;;16.00;82.11
35910;BME280;22004;49.120;-0.200;2023-05-07T08:00:17;101512.09;;;15.85;83.67
35910;BME280;22004;49.120;-0.200;2023-05-07T08:02:43;101517.88;;;16.03;81.20
35910;BME280;22004;49.120;-0.200;2023-05-07T08:05:08;101523.50;;;16.02;80.62
35910;BME280;22004;49.120;-0.200;2023-05-07T08:07:34;101532.00;;;15.99;80.15
35910;BME280;22004;49.120;-0.200;2023-05-07T08:09:59;101536.00;;;16.03;81.39
35910;BME280;22004;49.120;-0.200;2023-05-07T08:12:25;101538.09;;;15.80;80.83
35910;BME280;22004;49.120;-0.200;2023-05-07T08:14:50;101536.31;;;15.87;80.10
35910;BME280;22004;49.120;-0.200;2023-05-07T08:17:15;101545.75;;;15.97;80.97
35910;BME280;22004;49.120;-0.200;2023-05-07T08:19:42;101546.72;;;15.90;80.02
35910;BME280;22004;49.120;-0.200;2023-05-07T08:22:09;101547.25;;;15.79;82.87
35910;BME280;22004;49.120;-0.200;2023-05-07T08:24:34;101545.75;;;15.55;82.37
35910;BME280;22004;49.120;-0.200;2023-05-07T08:26:59;101545.47;;;15.64;81.75
35910;BME280;22004;49.120;-0.200;2023-05-07T08:29:25;101560.75;;;15.72;82.03
35910;BME280;22004;49.120;-0.200;2023-05-07T08:31:50;101561.09;;;15.90;80.00
35910;BME280;22004;49.120;-0.200;2023-05-07T08:34:15;101556.41;;;15.77;81.84
35910;BME280;22004;49.120;-0.200;2023-05-07T08:36:41;101561.69;;;15.64;81.58
35910;BME280;22004;49.120;-0.200;2023-05-07T08:39:11;101556.41;;;15.77;81.87
35910;BME280;22004;49.120;-0.200;2023-05-07T08:41:36;101557.22;;;15.99;81.21
35910;BME280;22004;49.120;-0.200;2023-05-07T08:44:03;101553.44;;;15.94;82.58
35910;BME280;22004;49.120;-0.200;2023-05-07T08:46:31;101563.34;;;16.08;81.14
35910;BME280;22004;49.120;-0.200;2023-05-07T08:48:57;101561.50;;;16.15;80.81
35910;BME280;22004;49.120;-0.200;2023-05-07T08:51:22;101569.22;;;16.46;79.04
35910;BME280;22004;49.120;-0.200;2023-05-07T08:53:49;101575.59;;;16.32;80.41
35910;BME280;22004;49.120;-0.200;2023-05-07T08:56:15;101568.00;;;16.21;78.93
35910;BME280;22004;49.120;-0.200;2023-05-07T08:58:42;101569.81;;;16.14;79.32
35910;BME280;22004;49.120;-0.200;2023-05-07T09:01:09;101574.13;;;16.01;80.67
35910;BME280;22004;49.120;-0.200;2023-05-07T09:03:37;101577.22;;;15.98;80.41
35910;BME280;22004;49.120;-0.200;2023-05-07T09:06:03;101580.72;;;15.92;80.10
35910;BME280;22004;49.120;-0.200;2023-05-07T09:08:29;101585.97;;;16.00;80.89
35910;BME280;22004;49.120;-0.200;2023-05-07T09:10:54;101572.25;;;16.02;79.59
35910;BME280;22004;49.120;-0.200;2023-05-07T09:13:20;101581.78;;;15.98;80.09
35910;BME280;22004;49.120;-0.200;2023-05-07T09:15:45;101573.09;;;16.02;79.22
35910;BME280;22004;49.120;-0.200;2023-05-07T09:18:12;101579.78;;;16.07;79.75
35910;BME280;22004;49.120;-0.200;2023-05-07T09:20:37;101586.22;;;16.06;80.17
35910;BME280;22004;49.120;-0.200;2023-05-07T09:23:03;101587.66;;;16.29;79.34
35910;BME280;22004;49.120;-0.200;2023-05-07T09:25:30;101590.28;;;16.16;80.06
35910;BME280;22004;49.120;-0.200;2023-05-07T09:27:56;101601.34;;;15.93;80.06
35910;BME280;22004;49.120;-0.200;2023-05-07T09:30:21;101610.75;;;15.76;80.85
35910;BME280;22004;49.120;-0.200;2023-05-07T09:32:46;101617.06;;;15.62;80.06
35910;BME280;22004;49.120;-0.200;2023-05-07T09:35:16;101614.16;;;15.63;81.38
35910;BME280;22004;49.120;-0.200;2023-05-07T09:37:42;101620.13;;;15.59;80.50
35910;BME280;22004;49.120;-0.200;2023-05-07T09:40:08;101618.34;;;15.66;80.65
35910;BME280;22004;49.120;-0.200;2023-05-07T09:42:45;101612.09;;;15.65;79.94
35910;BME280;22004;49.120;-0.200;2023-05-07T09:45:12;101613.78;;;15.88;81.04
35910;BME280;22004;49.120;-0.200;2023-05-07T09:47:38;101625.66;;;15.87;79.96
35910;BME280;22004;49.120;-0.200;2023-05-07T09:50:05;101616.09;;;15.91;80.48
35910;BME280;22004;49.120;-0.200;2023-05-07T09:52:34;101615.19;;;16.05;80.27
35910;BME280;22004;49.120;-0.200;2023-05-07T09:55:00;101617.13;;;15.68;80.05
35910;BME280;22004;49.120;-0.200;2023-05-07T09:57:27;101619.84;;;15.90;80.18
35910;BME280;22004;49.120;-0.200;2023-05-07T09:59:55;101622.63;;;15.96;79.68
35910;BME280;22004;49.120;-0.200;2023-05-07T10:02:23;101629.78;;;15.83;79.22
35910;BME280;22004;49.120;-0.200;2023-05-07T10:04:50;101627.09;;;16.11;79.75
35910;BME280;22004;49.120;-0.200;2023-05-07T10:07:16;101630.13;;;16.22;77.60
35910;BME280;22004;49.120;-0.200;2023-05-07T10:09:43;101631.34;;;16.20;78.07
35910;BME280;22004;49.120;-0.200;2023-05-07T10:12:09;101632.81;;;16.50;77.77
35910;BME280;22004;49.120;-0.200;2023-05-07T10:14:35;101642.66;;;16.51;76.32
35910;BME280;22004;49.120;-0.200;2023-05-07T10:17:02;101641.22;;;16.27;77.20
35910;BME280;22004;49.120;-0.200;2023-05-07T10:19:29;101645.47;;;16.15;77.69
35910;BME280;22004;49.120;-0.200;2023-05-07T10:22:00;101644.22;;;15.68;79.44
35910;BME280;22004;49.120;-0.200;2023-05-07T10:24:30;101647.41;;;15.57;80.15
35910;BME280;22004;49.120;-0.200;2023-05-07T10:26:58;101642.03;;;15.79;79.45
35910;BME280;22004;49.120;-0.200;2023-05-07T10:29:33;101647.75;;;15.90;78.57
35910;BME280;22004;49.120;-0.200;2023-05-07T10:32:06;101651.88;;;15.86;80.46
35910;BME280;22004;49.120;-0.200;2023-05-07T10:34:40;101648.47;;;15.99;79.29
35910;BME280;22004;49.120;-0.200;2023-05-07T10:37:07;101646.59;;;15.99;78.75
35910;BME280;22004;49.120;-0.200;2023-05-07T10:39:33;101664.47;;;15.72;80.10
35910;BME280;22004;49.120;-0.200;2023-05-07T10:42:10;101667.03;;;15.81;79.90
35910;BME280;22004;49.120;-0.200;2023-05-07T10:44:35;101659.25;;;15.92;78.85
35910;BME280;22004;49.120;-0.200;2023-05-07T10:47:12;101660.41;;;15.83;80.75
35910;BME280;22004;49.120;-0.200;2023-05-07T10:52:21;101659.78;;;17.82;75.74
35910;BME280;22004;49.120;-0.200;2023-05-07T10:57:50;101662.84;;;17.66;74.26
35910;BME280;22004;49.120;-0.200;2023-05-07T11:05:26;101672.22;;;17.64;73.97
35910;BME280;22004;49.120;-0.200;2023-05-07T11:08:02;101671.47;;;17.76;73.31
35910;BME280;22004;49.120;-0.200;2023-05-07T11:10:53;101668.25;;;17.60;72.81
35910;BME280;22004;49.120;-0.200;2023-05-07T11:16:24;101671.53;;;17.00;74.56
35910;BME280;22004;49.120;-0.200;2023-05-07T11:18:56;101676.38;;;17.05;77.06
35910;BME280;22004;49.120;-0.200;2023-05-07T11:23:59;101667.88;;;16.80;75.68
35910;BME280;22004;49.120;-0.200;2023-05-07T11:26:26;101672.50;;;16.58;76.87
35910;BME280;22004;49.120;-0.200;2023-05-07T11:28:52;101681.09;;;16.90;78.20
35910;BME280;22004;49.120;-0.200;2023-05-07T11:31:26;101683.22;;;17.36;78.37
35910;BME280;22004;49.120;-0.200;2023-05-07T11:33:53;101688.28;;;17.52;73.39
35910;BME280;22004;49.120;-0.200;2023-05-07T11:36:18;101694.41;;;17.19;77.48
35910;BME280;22004;49.120;-0.200;2023-05-07T11:38:45;101696.94;;;16.65;78.07
35910;BME280;22004;49.120;-0.200;2023-05-07T11:41:11;101704.25;;;16.36;77.46
35910;BME280;22004;49.120;-0.200;2023-05-07T11:43:36;101706.03;;;16.29;79.07
35910;BME280;22004;49.120;-0.200;2023-05-07T11:46:09;101711.28;;;16.59;77.31
35910;BME280;22004;49.120;-0.200;2023-05-07T11:48:35;101713.59;;;16.83;76.03
35910;BME280;22004;49.120;-0.200;2023-05-07T11:51:02;101712.19;;;16.94;nan
35910;BME280;22004;49.120;-0.200;2023-05-07T11:53:35;101709.69;;;16.92;75.48
35910;BME280;22004;49.120;-0.200;2023-05-07T11:56:06;101700.84;;;16.77;76.92
35910;BME280;22004;49.120;-0.200;2023-05-07T11:58:32;101721.47;;;17.47;75.29
35910;BME280;22004;49.120;-0.200;2023-05-07T12:00:57;101710.63;;;18.42;73.26
35910;BME280;22004;49.120;-0.200;2023-05-07T12:03:22;101716.91;;;18.16;72.61
35910;BME280;22004;49.120;-0.200;2023-05-07T12:05:48;101718.28;;;16.96;75.79
35910;BME280;22004;49.120;-0.200;2023-05-07T12:08:15;101721.66;;;17.04;76.56
35910;BME280;22004;49.120;-0.200;2023-05-07T12:10:44;101732.44;;;16.42;78.20
35910;BME280;22004;49.120;-0.200;2023-05-07T12:13:16;101732.16;;;16.58;76.26
35910;BME280;22004;49.120;-0.200;2023-05-07T12:15:42;101741.84;;;17.30;76.97
35910;BME280;22004;49.120;-0.200;2023-05-07T12:18:08;101740.97;;;16.88;75.73
35910;BME280;22004;49.120;-0.200;2023-05-07T12:20:35;101747.78;;;16.77;75.84
35910;BME280;22004;49.120;-0.200;2023-05-07T12:23:01;101745.25;;;16.76;75.57
35910;BME280;22004;49.120;-0.200;2023-05-07T12:25:30;101750.31;;;16.86;76.42
35910;BME280;22004;49.120;-0.200;2023-05-07T12:27:56;101739.88;;;17.11;76.29
35910;BME280;22004;49.120;-0.200;2023-05-07T12:30:24;101740.22;;;17.36;75.75
35910;BME280;22004;49.120;-0.200;2023-05-07T12:32:53;101732.78;;;17.51;75.05
35910;BME280;22004;49.120;-0.200;2023-05-07T12:35:26;101740.25;;;17.42;74.78
35910;BME280;22004;49.120;-0.200;2023-05-07T12:37:59;101740.31;;;18.10;71.53
35910;BME280;22004;49.120;-0.200;2023-05-07T12:40:40;101734.28;;;18.74;69.51
35910;BME280;22004;49.120;-0.200;2023-05-07T12:43:05;101741.31;;;18.02;72.04
35910;BME280;22004;49.120;-0.200;2023-05-07T12:45:30;101752.56;;;17.45;73.25
35910;BME280;22004;49.120;-0.200;2023-05-07T12:48:01;101745.25;;;17.45;74.45
35910;BME280;22004;49.120;-0.200;2023-05-07T12:50:31;101740.06;;;17.09;73.72
35910;BME280;22004;49.120;-0.200;2023-05-07T12:52:57;101739.41;;;17.90;72.28